Time;durP1;ratioP1;P1;durP2;ratioP2;P2;SDS_P1;SDS_P2;PMS_P1;PMS_P2;Temp;Humidity;BMP_temperature;BMP_pressure;BME280_temperature;BME280_humidity;BME280_pressure;Samples;Min_cycle;Max_cycle;Signal;HPM_P1;HPM_P2
2023/01/21 00:01:10;;;;;;;;;;;-1.10;99.90;;;;;;5113753;27;19932;-79
2023/01/21 00:03:36;;;;;;;;;;;-1.10;99.90;;;;;;5135506;27;19923;-79
2023/01/21 00:06:02;;;;;;;;;;;-1.20;99.90;;;;;;5106905;27;19963;-79
2023/01/21 00:08:28;;;;;;;;;;;-1.20;99.90;;;;;;5121201;27;19973;-79
2023/01/21 00:10:54;;;;;;;;;;;-1.30;99.90;;;;;;5120514;27;19927;-79
2023/01/21 00:13:19;;;;;;;;;;;-1.30;99.90;;;;;;5110694;27;19934;-79
2023/01/21 00:15:45;;;;;;;;;;;-1.40;99.90;;;;;;5121228;27;19923;-79
2023/01/21 00:18:10;;;;;;;;;;;-1.40;99.90;;;;;;5119349;27;20020;-79
2023/01/21 00:20:36;;;;;;;;;;;-1.40;99.90;;;;;;5103100;27;20407;-79
2023/01/21 00:23:01;;;;;;;;;;;-1.40;99.90;;;;;;5118639;27;19923;-79
2023/01/21 00:25:27;;;;;;;;;;;-1.40;99.90;;;;;;5122862;27;19982;-79
2023/01/21 00:27:53;;;;;;;;;;;-1.50;99.90;;;;;;5100339;27;19972;-79
2023/01/21 00:30:18;;;;;;;;;;;-1.50;99.90;;;;;;5113305;27;19942;-79
2023/01/21 00:32:44;;;;;;;;;;;-1.40;99.90;;;;;;5119256;27;20403;-79
2023/01/21 00:35:09;;;;;;;;;;;-1.30;99.90;;;;;;5113423;27;19928;-79
2023/01/21 00:37:35;;;;;;;;;;;-1.40;99.90;;;;;;5111479;27;19923;-79
2023/01/21 00:40:00;;;;;;;;;;;-1.30;99.90;;;;;;5112087;27;20020;-79
2023/01/21 00:42:27;;;;;;;;;;;-1.30;99.90;;;;;;5120047;27;19928;-79
2023/01/21 00:44:53;;;;;;;;;;;-1.30;99.90;;;;;;5120010;27;20045;-79
2023/01/21 00:47:19;;;;;;;;;;;-1.20;99.90;;;;;;5097654;27;19979;-79
2023/01/21 00:49:44;;;;;;;;;;;-1.10;99.90;;;;;;5138398;27;19923;-79
2023/01/21 00:52:10;;;;;;;;;;;-1.00;99.90;;;;;;5102043;27;19923;-79
2023/01/21 00:54:35;;;;;;;;;;;-1.00;99.90;;;;;;5120620;27;19923;-79
2023/01/21 00:57:01;;;;;;;;;;;-0.90;99.90;;;;;;5130155;27;19924;-79
2023/01/21 00:59:27;;;;;;;;;;;-0.90;99.90;;;;;;5102665;27;19962;-79
2023/01/21 01:01:52;;;;;;;;;;;-0.90;99.90;;;;;;5117769;27;19931;-79
2023/01/21 01:04:18;;;;;;;;;;;-0.80;99.90;;;;;;5117275;27;19923;-79
2023/01/21 01:06:44;;;;;;;;;;;-0.80;99.90;;;;;;5116268;27;19923;-79
2023/01/21 01:09:11;;;;;;;;;;;-0.70;99.90;;;;;;5114343;27;20026;-79
2023/01/21 01:11:37;;;;;;;;;;;-0.70;99.90;;;;;;5119861;27;20164;-79
2023/01/21 01:14:03;;;;;;;;;;;-0.70;99.90;;;;;;5116528;27;19931;-79
2023/01/21 01:16:29;;;;;;;;;;;-0.60;99.90;;;;;;5118681;27;19930;-79
2023/01/21 01:18:55;;;;;;;;;;;-0.50;99.90;;;;;;5137288;27;19924;-79
2023/01/21 01:21:21;;;;;;;;;;;-0.60;99.90;;;;;;5118310;27;19976;-79
2023/01/21 01:23:47;;;;;;;;;;;-0.60;99.90;;;;;;5107458;28;19924;-79
2023/01/21 01:26:14;;;;;;;;;;;-0.60;99.90;;;;;;5115411;27;19923;-79
2023/01/21 01:28:40;;;;;;;;;;;-0.60;99.90;;;;;;5134188;27;19943;-79
2023/01/21 01:31:06;;;;;;;;;;;-0.60;99.90;;;;;;5106938;28;20289;-79
2023/01/21 01:33:32;;;;;;;;;;;-0.60;99.90;;;;;;5115095;28;19949;-79
2023/01/21 01:36:02;;;;;;;;;;;-0.60;99.90;;;;;;5115052;28;19927;-79
2023/01/21 01:38:27;;;;;;;;;;;-0.60;99.90;;;;;;5135678;28;20021;-79
2023/01/21 01:40:53;;;;;;;;;;;-0.60;99.90;;;;;;5135193;28;19924;-79
2023/01/21 01:43:20;;;;;;;;;;;-0.60;99.90;;;;;;5108020;28;19923;-79
2023/01/21 01:45:46;;;;;;;;;;;-0.60;99.90;;;;;;5102718;28;19969;-79
2023/01/21 01:48:17;;;;;;;;;;;-0.70;99.90;;;;;;5119763;28;19924;-79
2023/01/21 01:50:42;;;;;;;;;;;-0.70;99.90;;;;;;5117884;28;19932;-79
2023/01/21 01:53:09;;;;;;;;;;;-0.70;99.90;;;;;;5114728;28;19976;-80
2023/01/21 01:55:35;;;;;;;;;;;-0.70;99.90;;;;;;5119784;28;19979;-80
2023/01/21 01:58:02;;;;;;;;;;;-0.70;99.90;;;;;;5120641;28;19930;-80
2023/01/21 02:00:28;;;;;;;;;;;-0.70;99.90;;;;;;5118792;28;19927;-79
2023/01/21 02:05:39;;;;;;;;;;;-0.60;99.90;;;;;;5116251;28;19945;-79
2023/01/21 02:08:05;;;;;;;;;;;-0.60;99.90;;;;;;5113779;28;19924;-79
2023/01/21 02:10:33;;;;;;;;;;;-0.70;99.90;;;;;;5102583;27;19934;-79
2023/01/21 02:12:59;;;;;;;;;;;-0.70;99.90;;;;;;5110576;28;19923;-80
2023/01/21 02:15:29;;;;;;;;;;;-0.70;99.90;;;;;;5120796;28;20480;-79
2023/01/21 02:17:58;;;;;;;;;;;-0.70;99.90;;;;;;5135207;28;20020;-79
2023/01/21 02:20:32;;;;;;;;;;;-0.70;99.90;;;;;;5121416;28;20022;-79
2023/01/21 02:23:03;;;;;;;;;;;-0.70;99.90;;;;;;5117102;27;19932;-79
2023/01/21 02:25:29;;;;;;;;;;;-0.70;99.90;;;;;;5120068;27;19930;-79
2023/01/21 02:28:03;;;;;;;;;;;-0.70;99.90;;;;;;5123464;27;20006;-79
2023/01/21 02:30:37;;;;;;;;;;;-0.60;99.90;;;;;;5124772;27;19931;-79
2023/01/21 02:33:21;;;;;;;;;;;-0.60;99.90;;;;;;5125919;27;19927;-79
2023/01/21 02:36:05;;;;;;;;;;;-0.60;99.90;;;;;;5124287;27;19931;-79
2023/01/21 02:38:33;;;;;;;;;;;-0.60;99.90;;;;;;5115251;27;20366;-79
2023/01/21 02:41:05;;;;;;;;;;;-0.60;99.90;;;;;;5122675;27;19930;-79
2023/01/21 02:43:30;;;;;;;;;;;-0.60;99.90;;;;;;5117426;28;19931;-80
2023/01/21 02:46:06;;;;;;;;;;;-0.60;99.90;;;;;;5114642;27;19927;-79
2023/01/21 02:48:36;;;;;;;;;;;-0.60;99.90;;;;;;5121745;27;19930;-79
2023/01/21 02:51:03;;;;;;;;;;;-0.60;99.90;;;;;;5115315;27;19951;-80
2023/01/21 02:53:30;;;;;;;;;;;-0.50;99.90;;;;;;5116693;27;19931;-80
2023/01/21 02:55:57;;;;;;;;;;;-0.50;99.90;;;;;;5141362;27;19923;-79
2023/01/21 02:58:32;;;;;;;;;;;-0.50;99.90;;;;;;5117704;27;20445;-79
2023/01/21 03:01:10;;;;;;;;;;;-0.50;99.90;;;;;;5116794;27;19984;-79
2023/01/21 03:03:41;;;;;;;;;;;-0.40;99.90;;;;;;5115518;27;20215;-79
2023/01/21 03:06:13;;;;;;;;;;;-0.50;99.90;;;;;;5122352;27;20101;-79
2023/01/21 03:08:41;;;;;;;;;;;-0.50;99.90;;;;;;5120488;27;19934;-79
2023/01/21 03:11:17;;;;;;;;;;;-0.50;99.90;;;;;;5114977;27;19927;-79
2023/01/21 03:16:57;;;;;;;;;;;-0.40;99.90;;;;;;5113674;27;19931;-79
2023/01/21 03:19:27;;;;;;;;;;;-0.40;99.90;;;;;;5121835;27;19938;-79
2023/01/21 03:21:52;;;;;;;;;;;-0.40;99.90;;;;;;5122851;27;19927;-79
2023/01/21 03:24:19;;;;;;;;;;;-0.40;99.90;;;;;;5091733;27;19966;-79
2023/01/21 03:26:46;;;;;;;;;;;-0.40;99.90;;;;;;5122243;27;19924;-79
2023/01/21 03:29:14;;;;;;;;;;;-0.40;99.90;;;;;;5115970;27;19931;-79
2023/01/21 03:31:41;;;;;;;;;;;-0.40;99.90;;;;;;5121759;27;19929;-80
2023/01/21 03:34:09;;;;;;;;;;;-0.30;99.90;;;;;;5109156;28;19928;-80
2023/01/21 03:36:42;;;;;;;;;;;-0.40;99.90;;;;;;5071138;28;19993;-80
2023/01/21 03:39:17;;;;;;;;;;;-0.30;99.90;;;;;;5094844;28;20448;-80
2023/01/21 03:41:42;;;;;;;;;;;-0.30;99.90;;;;;;5093542;28;19967;-80
2023/01/21 03:44:08;;;;;;;;;;;-0.40;99.90;;;;;;5097066;28;19924;-80
2023/01/21 03:46:42;;;;;;;;;;;-0.40;99.90;;;;;;5070802;28;19931;-80
2023/01/21 03:49:13;;;;;;;;;;;-0.30;99.90;;;;;;5091127;28;19932;-80
2023/01/21 03:51:40;;;;;;;;;;;-0.40;99.90;;;;;;5095893;28;19967;-80
2023/01/21 03:54:06;;;;;;;;;;;-0.40;99.90;;;;;;5065035;28;19931;-80
2023/01/21 03:56:31;;;;;;;;;;;-0.40;99.90;;;;;;5078070;28;19994;-79
2023/01/21 03:58:57;;;;;;;;;;;-0.40;99.90;;;;;;5099428;28;19936;-80
2023/01/21 04:01:22;;;;;;;;;;;-0.40;99.90;;;;;;5095778;28;19930;-81
2023/01/21 04:03:48;;;;;;;;;;;-0.40;99.90;;;;;;5091658;28;19931;-79
2023/01/21 04:06:18;;;;;;;;;;;-0.40;99.90;;;;;;5074137;28;19925;-80
2023/01/21 04:08:44;;;;;;;;;;;-0.40;99.90;;;;;;5095817;28;19970;-80
2023/01/21 04:11:09;;;;;;;;;;;-0.40;99.90;;;;;;5074983;28;20386;-80
2023/01/21 04:13:35;;;;;;;;;;;-0.30;99.90;;;;;;5092534;28;19924;-80
2023/01/21 04:16:01;;;;;;;;;;;-0.40;99.90;;;;;;5098204;28;19924;-80
2023/01/21 04:18:26;;;;;;;;;;;-0.30;99.90;;;;;;5071504;28;19924;-80
2023/01/21 04:20:52;;;;;;;;;;;-0.30;99.90;;;;;;5097724;28;19939;-80
2023/01/21 04:23:17;;;;;;;;;;;-0.30;99.90;;;;;;5067505;28;19929;-80
2023/01/21 04:25:43;;;;;;;;;;;-0.30;99.90;;;;;;5095508;28;19932;-79
2023/01/21 04:28:08;;;;;;;;;;;-0.30;99.90;;;;;;5097354;28;19975;-80
2023/01/21 04:30:34;;;;;;;;;;;-0.30;99.90;;;;;;5095758;28;19924;-80
2023/01/21 04:33:00;;;;;;;;;;;-0.30;99.90;;;;;;5088804;28;20256;-79
2023/01/21 04:35:26;;;;;;;;;;;-0.20;99.90;;;;;;5087952;28;19955;-79
2023/01/21 04:37:51;;;;;;;;;;;-0.20;99.90;;;;;;5094930;28;19971;-80
2023/01/21 04:40:17;;;;;;;;;;;-0.30;99.90;;;;;;5090125;28;19932;-80
2023/01/21 04:42:43;;;;;;;;;;;-0.30;99.90;;;;;;5088913;28;19963;-80
2023/01/21 04:45:08;;;;;;;;;;;-0.20;99.90;;;;;;5078580;28;19935;-80
2023/01/21 04:47:34;;;;;;;;;;;-0.20;99.90;;;;;;5073288;28;19928;-80
2023/01/21 04:50:01;;;;;;;;;;;-0.20;99.90;;;;;;5097159;28;19928;-80
2023/01/21 04:52:26;;;;;;;;;;;-0.20;99.90;;;;;;5092721;28;19956;-80
2023/01/21 04:54:52;;;;;;;;;;;-0.20;99.90;;;;;;5097995;28;19964;-80
2023/01/21 04:57:17;;;;;;;;;;;-0.20;99.90;;;;;;5095775;28;19943;-80
2023/01/21 04:59:43;;;;;;;;;;;-0.30;99.90;;;;;;5095983;28;19924;-80
2023/01/21 05:02:08;;;;;;;;;;;-0.30;99.90;;;;;;5095584;28;20317;-80
2023/01/21 05:04:34;;;;;;;;;;;-0.20;99.90;;;;;;5094936;28;19991;-80
2023/01/21 05:07:00;;;;;;;;;;;-0.30;99.90;;;;;;5094784;28;19924;-79
2023/01/21 05:09:26;;;;;;;;;;;-0.40;99.90;;;;;;5095071;28;19935;-80
2023/01/21 05:11:51;;;;;;;;;;;-0.50;99.90;;;;;;5076063;28;19935;-80
2023/01/21 05:14:17;;;;;;;;;;;-0.50;99.90;;;;;;5073530;28;19928;-79
2023/01/21 05:16:42;;;;;;;;;;;-0.60;99.90;;;;;;5096316;28;20303;-79
2023/01/21 05:19:08;;;;;;;;;;;-0.70;99.90;;;;;;5095163;28;19932;-80
2023/01/21 05:21:33;;;;;;;;;;;-0.70;99.90;;;;;;5094869;28;20040;-81
2023/01/21 05:23:59;;;;;;;;;;;-0.70;99.90;;;;;;5094372;28;19925;-80
2023/01/21 05:26:24;;;;;;;;;;;-0.70;99.90;;;;;;5075552;28;19924;-80
2023/01/21 05:28:50;;;;;;;;;;;-0.70;99.90;;;;;;5095043;28;20997;-79
2023/01/21 05:31:15;;;;;;;;;;;-0.60;99.90;;;;;;5088234;28;19932;-79
2023/01/21 05:33:44;;;;;;;;;;;-0.60;99.90;;;;;;5090510;28;19938;-80
2023/01/21 05:36:09;;;;;;;;;;;-0.60;99.90;;;;;;5109667;28;20003;-80
2023/01/21 05:38:35;;;;;;;;;;;-0.50;99.90;;;;;;5090546;28;19924;-80
2023/01/21 05:41:01;;;;;;;;;;;-0.60;99.90;;;;;;5099270;28;19984;-80
2023/01/21 05:43:27;;;;;;;;;;;-0.50;99.90;;;;;;5108052;28;19923;-80
2023/01/21 05:45:53;;;;;;;;;;;-0.50;99.90;;;;;;5094097;28;19962;-80
2023/01/21 05:48:19;;;;;;;;;;;-0.40;99.90;;;;;;5087762;28;19924;-80
2023/01/21 05:50:44;;;;;;;;;;;-0.30;99.90;;;;;;5111977;28;19924;-80
2023/01/21 05:53:10;;;;;;;;;;;-0.30;99.90;;;;;;5099057;28;20431;-79
2023/01/21 05:55:36;;;;;;;;;;;-0.40;99.90;;;;;;5113304;28;19935;-80
2023/01/21 05:58:01;;;;;;;;;;;-0.30;99.90;;;;;;5114656;28;19930;-80
2023/01/21 06:00:27;;;;;;;;;;;-0.30;99.90;;;;;;5116849;28;19988;-81
2023/01/21 06:02:52;;;;;;;;;;;-0.30;99.90;;;;;;5120000;28;19987;-80
2023/01/21 06:05:18;;;;;;;;;;;-0.30;99.90;;;;;;5094293;28;19928;-80
2023/01/21 06:07:43;;;;;;;;;;;-0.30;99.90;;;;;;5104448;28;19928;-80
2023/01/21 06:10:09;;;;;;;;;;;-0.30;99.90;;;;;;5121617;28;19977;-80
2023/01/21 06:12:35;;;;;;;;;;;-0.20;99.90;;;;;;5119890;28;19924;-80
2023/01/21 06:15:00;;;;;;;;;;;-0.20;99.90;;;;;;5121276;28;19923;-80
2023/01/21 06:17:26;;;;;;;;;;;-0.20;99.90;;;;;;5118918;28;20092;-80
2023/01/21 06:19:51;;;;;;;;;;;-0.20;99.90;;;;;;5119858;28;19923;-80
2023/01/21 06:22:17;;;;;;;;;;;-0.20;99.90;;;;;;5118624;28;19981;-79
2023/01/21 06:24:43;;;;;;;;;;;-0.10;99.90;;;;;;5119304;28;19966;-80
2023/01/21 06:27:09;;;;;;;;;;;-0.10;99.90;;;;;;5120856;28;19933;-80
2023/01/21 06:29:34;;;;;;;;;;;0.00;99.90;;;;;;5111948;28;19934;-80
2023/01/21 06:32:00;;;;;;;;;;;0.00;99.90;;;;;;5092383;28;20329;-80
2023/01/21 06:34:25;;;;;;;;;;;0.00;99.90;;;;;;5107226;28;19924;-79
2023/01/21 06:36:51;;;;;;;;;;;0.00;99.90;;;;;;5098457;28;19932;-80
2023/01/21 06:39:17;;;;;;;;;;;0.00;99.90;;;;;;5091060;28;20013;-80
2023/01/21 06:41:43;;;;;;;;;;;0.00;99.90;;;;;;5097398;28;19928;-79
2023/01/21 06:44:08;;;;;;;;;;;0.10;99.90;;;;;;5093955;28;19924;-80
2023/01/21 06:46:34;;;;;;;;;;;0.10;99.90;;;;;;5094612;28;19924;-80
2023/01/21 06:48:59;;;;;;;;;;;0.10;99.90;;;;;;5098649;28;19924;-80
2023/01/21 06:51:25;;;;;;;;;;;0.10;99.90;;;;;;5079308;28;19936;-80
2023/01/21 06:53:50;;;;;;;;;;;0.10;99.90;;;;;;5099913;28;19931;-80
2023/01/21 06:56:16;;;;;;;;;;;0.10;99.90;;;;;;5079829;28;20359;-80
2023/01/21 06:58:42;;;;;;;;;;;0.20;99.90;;;;;;5098926;28;19930;-79
2023/01/21 07:01:07;;;;;;;;;;;0.10;99.90;;;;;;5091429;28;19928;-80
2023/01/21 07:03:33;;;;;;;;;;;0.10;99.90;;;;;;5082213;28;19995;-80
2023/01/21 07:05:58;;;;;;;;;;;0.10;99.90;;;;;;5068124;28;19925;-80
2023/01/21 07:08:24;;;;;;;;;;;0.20;99.90;;;;;;5094614;28;20023;-80
2023/01/21 07:10:49;;;;;;;;;;;0.20;99.90;;;;;;5094225;28;19924;-79
2023/01/21 07:13:15;;;;;;;;;;;0.20;99.90;;;;;;5095438;28;19928;-80
2023/01/21 07:15:40;;;;;;;;;;;0.20;99.90;;;;;;5092459;28;19928;-79
2023/01/21 07:18:06;;;;;;;;;;;0.20;99.90;;;;;;5097624;28;19924;-80
2023/01/21 07:20:31;;;;;;;;;;;0.10;99.90;;;;;;5093242;28;19924;-80
2023/01/21 07:22:57;;;;;;;;;;;0.10;99.90;;;;;;5093378;28;19972;-79
2023/01/21 07:25:23;;;;;;;;;;;0.20;99.90;;;;;;5072422;28;19969;-80
2023/01/21 07:27:48;;;;;;;;;;;0.20;99.90;;;;;;5113849;28;19931;-80
2023/01/21 07:30:15;;;;;;;;;;;0.10;99.90;;;;;;5095917;28;20019;-80
2023/01/21 07:32:41;;;;;;;;;;;0.20;99.90;;;;;;5097932;28;19924;-79
2023/01/21 07:35:07;;;;;;;;;;;0.10;99.90;;;;;;5092929;28;19935;-80
2023/01/21 07:37:32;;;;;;;;;;;0.20;99.90;;;;;;5094852;28;19974;-80
2023/01/21 07:39:58;;;;;;;;;;;0.20;99.90;;;;;;5096632;28;19928;-80
2023/01/21 07:42:23;;;;;;;;;;;0.20;99.90;;;;;;5096227;28;19924;-80
2023/01/21 07:44:49;;;;;;;;;;;0.10;99.90;;;;;;5087392;28;19925;-79
2023/01/21 07:47:15;;;;;;;;;;;0.20;99.90;;;;;;5098160;28;20007;-79
2023/01/21 07:49:40;;;;;;;;;;;0.10;99.90;;;;;;5091623;28;19925;-79
2023/01/21 07:52:06;;;;;;;;;;;0.20;99.90;;;;;;5089609;28;20328;-79
2023/01/21 07:54:31;;;;;;;;;;;0.20;99.90;;;;;;5099308;28;20393;-79
2023/01/21 07:56:57;;;;;;;;;;;0.20;99.90;;;;;;5089916;28;19928;-79
2023/01/21 07:59:23;;;;;;;;;;;0.20;99.90;;;;;;5075316;28;20023;-79
2023/01/21 08:01:48;;;;;;;;;;;0.20;99.90;;;;;;5070355;28;19939;-79
2023/01/21 08:04:14;;;;;;;;;;;0.20;99.90;;;;;;5093483;28;19925;-79
2023/01/21 08:06:40;;;;;;;;;;;0.20;99.90;;;;;;5089933;28;19931;-79
2023/01/21 08:09:06;;;;;;;;;;;0.20;99.90;;;;;;5096727;28;20011;-79
2023/01/21 08:11:31;;;;;;;;;;;0.20;99.90;;;;;;5097259;28;19978;-79
2023/01/21 08:13:57;;;;;;;;;;;0.30;99.90;;;;;;5076072;28;19935;-79
2023/01/21 08:16:22;;;;;;;;;;;0.30;99.90;;;;;;5077355;28;19924;-79
2023/01/21 08:18:48;;;;;;;;;;;0.20;99.90;;;;;;5048880;28;19983;-79
2023/01/21 08:21:14;;;;;;;;;;;0.20;99.90;;;;;;5096539;28;19924;-79
2023/01/21 08:23:39;;;;;;;;;;;0.30;99.90;;;;;;5094785;28;19927;-79
2023/01/21 08:26:05;;;;;;;;;;;0.30;99.90;;;;;;5095531;28;19983;-81
2023/01/21 08:28:31;;;;;;;;;;;0.30;99.90;;;;;;5096851;28;20355;-80
2023/01/21 08:31:10;;;;;;;;;;;0.30;99.90;;;;;;5093565;28;20389;-80
2023/01/21 08:33:36;;;;;;;;;;;0.30;99.90;;;;;;5090822;28;20018;-80
2023/01/21 08:36:03;;;;;;;;;;;0.30;99.90;;;;;;5096874;28;19971;-80
2023/01/21 08:38:28;;;;;;;;;;;0.30;99.90;;;;;;5077821;28;19939;-80
2023/01/21 08:40:55;;;;;;;;;;;0.30;99.90;;;;;;5097644;28;20238;-80
2023/01/21 08:43:21;;;;;;;;;;;0.30;99.90;;;;;;5092758;28;19924;-80
2023/01/21 08:45:46;;;;;;;;;;;0.30;99.90;;;;;;5077245;28;19924;-79
2023/01/21 08:48:12;;;;;;;;;;;0.30;99.90;;;;;;5095936;28;19928;-79
2023/01/21 08:50:37;;;;;;;;;;;0.30;99.90;;;;;;5080746;28;20011;-79
2023/01/21 08:53:03;;;;;;;;;;;0.40;99.90;;;;;;5096298;28;20007;-79
2023/01/21 08:55:28;;;;;;;;;;;0.40;99.90;;;;;;5096825;28;19924;-79
2023/01/21 08:57:54;;;;;;;;;;;0.50;99.90;;;;;;5097340;28;20008;-79
2023/01/21 09:00:21;;;;;;;;;;;0.40;99.90;;;;;;5088101;28;19924;-79
2023/01/21 09:02:47;;;;;;;;;;;0.40;99.90;;;;;;5097898;28;19931;-79
2023/01/21 09:05:12;;;;;;;;;;;0.50;99.90;;;;;;5096516;28;19932;-81
2023/01/21 09:07:38;;;;;;;;;;;0.50;99.90;;;;;;5097202;28;19979;-79
2023/01/21 09:10:04;;;;;;;;;;;0.60;99.90;;;;;;5096674;28;19928;-80
2023/01/21 09:12:30;;;;;;;;;;;0.60;99.90;;;;;;5093900;28;20465;-80
2023/01/21 09:14:56;;;;;;;;;;;0.60;99.90;;;;;;5090015;28;20038;-80
2023/01/21 09:17:21;;;;;;;;;;;0.70;99.90;;;;;;5091028;28;19928;-81
2023/01/21 09:19:47;;;;;;;;;;;0.70;99.90;;;;;;5091030;28;19929;-80
2023/01/21 09:22:13;;;;;;;;;;;0.80;99.90;;;;;;5084384;28;19936;-80
2023/01/21 09:24:39;;;;;;;;;;;0.80;99.90;;;;;;5077537;28;19947;-79
2023/01/21 09:27:08;;;;;;;;;;;0.80;99.90;;;;;;5092607;28;19935;-79
2023/01/21 09:29:34;;;;;;;;;;;0.80;99.90;;;;;;5091559;28;19954;-79
2023/01/21 09:32:00;;;;;;;;;;;0.80;99.90;;;;;;5094005;28;20366;-79
2023/01/21 09:34:26;;;;;;;;;;;0.90;99.90;;;;;;5091859;28;19928;-79
2023/01/21 09:36:52;;;;;;;;;;;0.90;99.90;;;;;;5096362;28;19938;-78
2023/01/21 09:39:17;;;;;;;;;;;0.90;99.90;;;;;;5072095;28;19924;-79
2023/01/21 09:41:45;;;;;;;;;;;0.90;99.90;;;;;;5094232;28;19924;-79
2023/01/21 09:44:13;;;;;;;;;;;0.90;99.90;;;;;;5089077;28;20042;-80
2023/01/21 09:46:39;;;;;;;;;;;1.00;99.90;;;;;;5085841;28;20057;-79
2023/01/21 09:49:08;;;;;;;;;;;1.00;99.90;;;;;;5096288;28;20035;-79
2023/01/21 09:52:06;;;;;;;;;;;1.00;99.90;;;;;;5092795;28;19932;-79
2023/01/21 09:54:32;;;;;;;;;;;1.10;99.90;;;;;;5043751;28;19982;-79
2023/01/21 09:57:16;;;;;;;;;;;1.00;99.90;;;;;;5088559;28;19954;-80
2023/01/21 09:59:45;;;;;;;;;;;1.10;99.90;;;;;;5095111;28;19928;-79
2023/01/21 10:02:19;;;;;;;;;;;1.10;99.90;;;;;;5086704;28;19963;-80
2023/01/21 10:04:53;;;;;;;;;;;1.10;99.90;;;;;;5089744;28;19924;-79
2023/01/21 10:07:26;;;;;;;;;;;1.10;99.90;;;;;;5092181;28;20012;-79
2023/01/21 10:09:52;;;;;;;;;;;1.10;99.90;;;;;;5091755;28;19924;-79
2023/01/21 10:12:26;;;;;;;;;;;1.20;99.90;;;;;;5096020;28;20003;-80
2023/01/21 10:14:52;;;;;;;;;;;1.20;99.90;;;;;;5095728;28;19931;-80
2023/01/21 10:17:28;;;;;;;;;;;1.30;99.90;;;;;;5087196;28;20022;-79
2023/01/21 10:19:57;;;;;;;;;;;1.30;99.90;;;;;;5076150;28;19940;-79
2023/01/21 10:22:26;;;;;;;;;;;1.40;99.90;;;;;;5084749;28;19924;-80
2023/01/21 10:24:59;;;;;;;;;;;1.40;99.90;;;;;;5081328;28;20042;-79
2023/01/21 10:27:26;;;;;;;;;;;1.40;99.90;;;;;;5077459;28;19939;-79
2023/01/21 10:29:54;;;;;;;;;;;1.40;99.90;;;;;;5071394;28;19939;-79
2023/01/21 10:32:21;;;;;;;;;;;1.50;99.90;;;;;;5088208;28;19924;-79
2023/01/21 10:34:51;;;;;;;;;;;1.50;99.90;;;;;;5083880;28;19979;-80
2023/01/21 10:37:23;;;;;;;;;;;1.50;99.90;;;;;;5116466;28;19927;-79
2023/01/21 10:40:12;;;;;;;;;;;1.60;99.90;;;;;;5116138;28;19927;-79
2023/01/21 10:42:53;;;;;;;;;;;1.60;99.90;;;;;;5117779;28;20057;-79
2023/01/21 10:45:19;;;;;;;;;;;1.70;99.90;;;;;;5116548;28;19928;-79
2023/01/21 10:47:55;;;;;;;;;;;1.70;99.90;;;;;;5118604;28;19942;-79
2023/01/21 10:50:39;;;;;;;;;;;1.80;99.90;;;;;;5089686;28;19924;-80
2023/01/21 10:53:11;;;;;;;;;;;1.90;99.90;;;;;;5120889;28;19924;-79
2023/01/21 10:55:46;;;;;;;;;;;1.90;99.90;;;;;;5093928;28;20038;-79
2023/01/21 10:58:15;;;;;;;;;;;1.90;99.90;;;;;;5118879;28;19930;-79
2023/01/21 11:00:44;;;;;;;;;;;1.90;99.90;;;;;;5120247;28;19946;-79
2023/01/21 11:03:12;;;;;;;;;;;2.00;99.90;;;;;;5118904;28;19972;-79
2023/01/21 11:05:38;;;;;;;;;;;2.00;99.90;;;;;;5117937;28;20002;-79
2023/01/21 11:08:04;;;;;;;;;;;2.10;99.90;;;;;;5119660;28;19924;-79
2023/01/21 11:10:29;;;;;;;;;;;2.10;99.90;;;;;;5118347;28;20286;-80
2023/01/21 11:12:55;;;;;;;;;;;2.10;99.90;;;;;;5119256;28;19924;-79
2023/01/21 11:15:21;;;;;;;;;;;2.10;99.90;;;;;;5111283;28;19935;-80
2023/01/21 11:17:48;;;;;;;;;;;2.10;99.90;;;;;;5115543;28;19924;-79
2023/01/21 11:20:20;;;;;;;;;;;2.10;99.90;;;;;;5114338;28;19924;-79
2023/01/21 11:22:45;;;;;;;;;;;2.20;99.90;;;;;;5097114;28;19928;-79
2023/01/21 11:25:27;;;;;;;;;;;2.20;99.90;;;;;;5117714;28;19935;-79
2023/01/21 11:27:52;;;;;;;;;;;2.20;99.90;;;;;;5115129;28;19923;-79
2023/01/21 11:30:27;;;;;;;;;;;2.30;99.90;;;;;;5112445;28;19954;-79
2023/01/21 11:32:52;;;;;;;;;;;2.30;99.90;;;;;;5085093;28;19966;-79
2023/01/21 11:35:21;;;;;;;;;;;2.30;99.90;;;;;;5098075;28;19924;-79
2023/01/21 11:37:47;;;;;;;;;;;2.30;99.90;;;;;;5092427;28;19930;-79
2023/01/21 11:40:25;;;;;;;;;;;2.30;99.90;;;;;;5096079;28;19967;-79
2023/01/21 11:42:54;;;;;;;;;;;2.30;99.90;;;;;;5099241;28;19974;-80
2023/01/21 11:45:23;;;;;;;;;;;2.40;99.90;;;;;;5098875;28;19924;-79
2023/01/21 11:47:49;;;;;;;;;;;2.40;99.90;;;;;;5096357;28;20127;-79
2023/01/21 11:50:16;;;;;;;;;;;2.40;99.90;;;;;;5099199;28;19931;-79
2023/01/21 11:52:42;;;;;;;;;;;2.40;99.90;;;;;;5090379;28;19924;-80
2023/01/21 11:55:18;;;;;;;;;;;2.40;99.90;;;;;;5097203;28;19943;-79
2023/01/21 11:57:48;;;;;;;;;;;2.40;99.90;;;;;;5095835;28;19928;-79
2023/01/21 12:00:18;;;;;;;;;;;2.30;99.90;;;;;;5095568;28;19928;-79
2023/01/21 12:02:46;;;;;;;;;;;2.30;99.90;;;;;;5098497;28;19924;-79
2023/01/21 12:05:19;;;;;;;;;;;2.30;99.90;;;;;;5090927;28;19924;-79
2023/01/21 12:07:48;;;;;;;;;;;2.30;99.90;;;;;;5094313;28;19924;-78
2023/01/21 12:10:35;;;;;;;;;;;2.30;99.90;;;;;;5096785;28;19931;-79
2023/01/21 12:13:19;;;;;;;;;;;2.30;99.90;;;;;;5090325;28;19947;-79
2023/01/21 12:15:53;;;;;;;;;;;2.40;99.90;;;;;;5064261;28;20118;-78
2023/01/21 12:18:38;;;;;;;;;;;2.40;99.90;;;;;;5086581;28;20011;-79
2023/01/21 12:21:09;;;;;;;;;;;2.50;99.90;;;;;;5089990;28;19924;-80
2023/01/21 12:23:35;;;;;;;;;;;2.60;99.90;;;;;;5084746;28;19969;-79
2023/01/21 12:26:06;;;;;;;;;;;2.80;99.90;;;;;;5098173;28;20316;-79
2023/01/21 12:28:40;;;;;;;;;;;3.10;99.90;;;;;;5098299;28;19924;-79
2023/01/21 12:31:05;;;;;;;;;;;3.20;99.90;;;;;;5097506;28;19947;-79
2023/01/21 12:33:31;;;;;;;;;;;3.30;99.90;;;;;;5096308;28;20406;-79
2023/01/21 12:35:59;;;;;;;;;;;3.30;99.90;;;;;;5119304;27;19938;-79
2023/01/21 12:38:32;;;;;;;;;;;3.30;99.90;;;;;;5116708;27;19984;-80
2023/01/21 12:41:07;;;;;;;;;;;3.40;99.90;;;;;;5114831;27;19928;-79
2023/01/21 12:43:42;;;;;;;;;;;3.50;99.90;;;;;;5109246;28;19957;-80
2023/01/21 12:46:13;;;;;;;;;;;3.50;99.90;;;;;;5121374;27;19923;-80
2023/01/21 12:48:47;;;;;;;;;;;3.40;99.90;;;;;;5116032;27;19950;-80
2023/01/21 12:51:15;;;;;;;;;;;3.30;99.90;;;;;;5118774;27;19923;-79
2023/01/21 12:53:45;;;;;;;;;;;3.30;99.90;;;;;;5131521;27;20377;-79
2023/01/21 12:56:11;;;;;;;;;;;3.30;99.90;;;;;;5120294;27;20310;-80
2023/01/21 12:58:53;;;;;;;;;;;3.30;99.90;;;;;;5120804;27;19955;-79
2023/01/21 13:01:32;;;;;;;;;;;3.30;99.90;;;;;;5101719;28;20018;-79
2023/01/21 13:04:01;;;;;;;;;;;3.40;99.90;;;;;;5097071;27;19948;-79
2023/01/21 13:06:27;;;;;;;;;;;3.50;99.90;;;;;;5119667;27;19927;-79
2023/01/21 13:09:00;;;;;;;;;;;3.50;99.90;;;;;;5111100;27;19930;-79
2023/01/21 13:11:34;;;;;;;;;;;3.50;99.90;;;;;;5113112;27;19928;-79
2023/01/21 13:14:06;;;;;;;;;;;3.60;99.90;;;;;;5118566;27;19945;-79
2023/01/21 13:16:33;;;;;;;;;;;3.70;99.90;;;;;;5139365;27;19923;-79
2023/01/21 13:18:59;;;;;;;;;;;3.80;99.90;;;;;;5114766;27;20018;-79
2023/01/21 13:21:24;;;;;;;;;;;3.90;99.90;;;;;;5099051;28;19974;-79
2023/01/21 13:23:57;;;;;;;;;;;3.90;99.90;;;;;;5116446;27;19930;-79
2023/01/21 13:26:37;;;;;;;;;;;3.90;99.90;;;;;;5138487;27;20018;-79
2023/01/21 13:29:23;;;;;;;;;;;4.00;99.90;;;;;;5120565;27;20368;-79
2023/01/21 13:31:52;;;;;;;;;;;4.00;99.90;;;;;;5116894;27;20001;-80
2023/01/21 13:34:17;;;;;;;;;;;3.90;99.90;;;;;;5118903;28;19931;-79
2023/01/21 13:36:46;;;;;;;;;;;3.90;99.90;;;;;;5120971;28;19946;-80
2023/01/21 13:39:14;;;;;;;;;;;3.90;99.90;;;;;;5117649;28;19923;-80
2023/01/21 13:41:49;;;;;;;;;;;3.90;99.90;;;;;;5121173;28;19924;-79
2023/01/21 13:44:30;;;;;;;;;;;3.90;99.90;;;;;;5117818;28;19930;-79
2023/01/21 13:47:14;;;;;;;;;;;3.90;99.90;;;;;;5108573;28;19945;-79
2023/01/21 13:49:49;;;;;;;;;;;3.90;99.90;;;;;;5120746;28;19923;-79
2023/01/21 13:52:21;;;;;;;;;;;4.00;99.90;;;;;;5117478;28;19998;-79
2023/01/21 13:54:52;;;;;;;;;;;4.00;99.90;;;;;;5120933;28;19923;-79
2023/01/21 13:57:24;;;;;;;;;;;3.90;99.90;;;;;;5119617;28;20328;-79
2023/01/21 13:59:54;;;;;;;;;;;3.90;99.90;;;;;;5120061;28;19959;-79
2023/01/21 14:02:19;;;;;;;;;;;3.90;99.90;;;;;;5103151;28;19934;-79
2023/01/21 14:05:14;;;;;;;;;;;3.90;99.90;;;;;;5119386;28;19963;-79
2023/01/21 14:07:43;;;;;;;;;;;3.90;99.90;;;;;;5100234;28;19930;-79
2023/01/21 14:10:11;;;;;;;;;;;3.90;99.90;;;;;;5102416;28;19938;-79
2023/01/21 14:12:56;;;;;;;;;;;3.90;99.90;;;;;;5116424;28;20306;-79
2023/01/21 14:15:28;;;;;;;;;;;3.90;99.90;;;;;;5101478;27;19924;-79
2023/01/21 14:18:09;;;;;;;;;;;3.90;99.90;;;;;;5121823;27;20338;-79
2023/01/21 14:20:48;;;;;;;;;;;3.80;99.90;;;;;;5116282;27;20011;-79
2023/01/21 14:23:33;;;;;;;;;;;3.70;99.90;;;;;;5123296;27;19934;-79
2023/01/21 14:25:58;;;;;;;;;;;3.70;99.90;;;;;;5142031;27;19927;-79
2023/01/21 14:28:33;;;;;;;;;;;3.50;99.90;;;;;;5118342;27;19938;-79
2023/01/21 14:31:13;;;;;;;;;;;3.40;99.90;;;;;;5127373;27;19967;-79
2023/01/21 14:33:48;;;;;;;;;;;3.30;99.90;;;;;;5128807;27;19969;-79
2023/01/21 14:36:16;;;;;;;;;;;3.20;99.90;;;;;;5116820;28;19930;-79